sensor_id;sensor_type;location;lat;lon;timestamp;temperature;humidity
23283;DHT22;11810;51.178;3.878;2023-06-22T00:02:18;17.30;99.90
23283;DHT22;11810;51.178;3.878;2023-06-22T00:04:44;17.30;99.90
23283;DHT22;11810;51.178;3.878;2023-06-22T00:07:10;17.40;99.90
23283;DHT22;11810;51.178;3.878;2023-06-22T00:09:36;17.20;99.90
23283;DHT22;11810;51.178;3.878;2023-06-22T00:12:03;17.20;99.90
23283;DHT22;11810;51.178;3.878;2023-06-22T00:14:29;17.10;99.90
23283;DHT22;11810;51.178;3.878;2023-06-22T00:16:54;17.00;99.90
23283;DHT22;11810;51.178;3.878;2023-06-22T00:19:21;17.00;99.90
23283;DHT22;11810;51.178;3.878;2023-06-22T00:21:48;16.90;99.90
23283;DHT22;11810;51.178;3.878;2023-06-22T00:24:21;17.00;99.90
23283;DHT22;11810;51.178;3.878;2023-06-22T00:26:50;16.90;99.90
23283;DHT22;11810;51.178;3.878;2023-06-22T00:29:16;16.90;99.90
23283;DHT22;11810;51.178;3.878;2023-06-22T00:31:44;16.80;99.90
23283;DHT22;11810;51.178;3.878;2023-06-22T00:34:10;16.70;99.90
23283;DHT22;11810;51.178;3.878;2023-06-22T00:36:36;16.80;99.90
23283;DHT22;11810;51.178;3.878;2023-06-22T00:39:02;16.70;99.90
23283;DHT22;11810;51.178;3.878;2023-06-22T00:41:29;16.70;99.90
23283;DHT22;11810;51.178;3.878;2023-06-22T00:43:55;16.70;99.90
23283;DHT22;11810;51.178;3.878;2023-06-22T00:46:21;16.70;99.90
23283;DHT22;11810;51.178;3.878;2023-06-22T00:48:49;16.90;99.90
23283;DHT22;11810;51.178;3.878;2023-06-22T00:51:16;16.80;99.90
23283;DHT22;11810;51.178;3.878;2023-06-22T00:53:42;16.80;99.90
23283;DHT22;11810;51.178;3.878;2023-06-22T00:56:08;16.80;99.90
23283;DHT22;11810;51.178;3.878;2023-06-22T00:58:37;16.70;99.90
23283;DHT22;11810;51.178;3.878;2023-06-22T01:01:03;16.70;99.90
23283;DHT22;11810;51.178;3.878;2023-06-22T01:03:29;16.60;99.90
23283;DHT22;11810;51.178;3.878;2023-06-22T01:06:02;16.60;99.90
23283;DHT22;11810;51.178;3.878;2023-06-22T01:16:23;16.60;99.90
23283;DHT22;11810;51.178;3.878;2023-06-22T01:18:52;16.60;99.90
23283;DHT22;11810;51.178;3.878;2023-06-22T01:21:22;16.60;99.90
23283;DHT22;11810;51.178;3.878;2023-06-22T01:26:22;16.60;99.90
23283;DHT22;11810;51.178;3.878;2023-06-22T01:28:57;16.60;99.90
23283;DHT22;11810;51.178;3.878;2023-06-22T01:31:26;16.60;99.90
23283;DHT22;11810;51.178;3.878;2023-06-22T01:34:04;16.60;99.90
23283;DHT22;11810;51.178;3.878;2023-06-22T01:36:32;16.50;99.90
23283;DHT22;11810;51.178;3.878;2023-06-22T01:38:59;16.50;99.90
23283;DHT22;11810;51.178;3.878;2023-06-22T01:41:26;16.60;99.90
23283;DHT22;11810;51.178;3.878;2023-06-22T01:43:53;16.50;99.90
23283;DHT22;11810;51.178;3.878;2023-06-22T01:46:21;16.50;99.90
23283;DHT22;11810;51.178;3.878;2023-06-22T01:48:48;16.40;99.90
23283;DHT22;11810;51.178;3.878;2023-06-22T01:51:14;16.40;99.90
23283;DHT22;11810;51.178;3.878;2023-06-22T01:53:40;16.30;99.90
23283;DHT22;11810;51.178;3.878;2023-06-22T01:56:06;16.30;99.90
23283;DHT22;11810;51.178;3.878;2023-06-22T01:58:33;16.30;99.90
23283;DHT22;11810;51.178;3.878;2023-06-22T02:01:12;16.20;99.90
23283;DHT22;11810;51.178;3.878;2023-06-22T02:03:48;16.20;99.90
23283;DHT22;11810;51.178;3.878;2023-06-22T02:06:29;16.20;99.90
23283;DHT22;11810;51.178;3.878;2023-06-22T02:09:02;16.20;99.90
23283;DHT22;11810;51.178;3.878;2023-06-22T02:11:30;16.20;99.90
23283;DHT22;11810;51.178;3.878;2023-06-22T02:13:58;16.20;99.90
23283;DHT22;11810;51.178;3.878;2023-06-22T02:16:24;16.20;99.90
23283;DHT22;11810;51.178;3.878;2023-06-22T02:18:51;16.10;99.90
23283;DHT22;11810;51.178;3.878;2023-06-22T02:21:18;16.10;99.90
23283;DHT22;11810;51.178;3.878;2023-06-22T02:23:44;16.10;99.90
23283;DHT22;11810;51.178;3.878;2023-06-22T02:26:10;16.10;99.90
23283;DHT22;11810;51.178;3.878;2023-06-22T02:28:36;16.10;99.90
23283;DHT22;11810;51.178;3.878;2023-06-22T02:31:02;16.00;99.90
23283;DHT22;11810;51.178;3.878;2023-06-22T02:33:28;16.10;99.90
23283;DHT22;11810;51.178;3.878;2023-06-22T02:35:54;16.10;99.90
23283;DHT22;11810;51.178;3.878;2023-06-22T02:38:20;16.10;99.90
23283;DHT22;11810;51.178;3.878;2023-06-22T02:40:46;16.10;99.90
23283;DHT22;11810;51.178;3.878;2023-06-22T02:43:13;16.10;99.90
23283;DHT22;11810;51.178;3.878;2023-06-22T02:45:38;16.10;99.90
23283;DHT22;11810;51.178;3.878;2023-06-22T02:48:05;16.00;99.90
23283;DHT22;11810;51.178;3.878;2023-06-22T02:50:31;16.00;99.90
23283;DHT22;11810;51.178;3.878;2023-06-22T02:52:57;16.00;99.90
23283;DHT22;11810;51.178;3.878;2023-06-22T02:55:23;16.10;99.90
23283;DHT22;11810;51.178;3.878;2023-06-22T02:57:49;16.10;99.90
23283;DHT22;11810;51.178;3.878;2023-06-22T03:00:19;16.10;99.90
23283;DHT22;11810;51.178;3.878;2023-06-22T03:02:46;16.10;99.90
23283;DHT22;11810;51.178;3.878;2023-06-22T03:05:16;16.10;99.90
23283;DHT22;11810;51.178;3.878;2023-06-22T03:07:44;16.10;99.90
23283;DHT22;11810;51.178;3.878;2023-06-22T03:10:11;16.10;99.90
23283;DHT22;11810;51.178;3.878;2023-06-22T03:12:38;16.20;99.90
23283;DHT22;11810;51.178;3.878;2023-06-22T03:15:06;16.10;99.90
23283;DHT22;11810;51.178;3.878;2023-06-22T03:17:33;16.10;99.90
23283;DHT22;11810;51.178;3.878;2023-06-22T03:19:59;16.10;99.90
23283;DHT22;11810;51.178;3.878;2023-06-22T03:22:25;16.10;99.90
23283;DHT22;11810;51.178;3.878;2023-06-22T03:24:51;16.00;99.90
23283;DHT22;11810;51.178;3.878;2023-06-22T03:27:16;15.90;99.90
23283;DHT22;11810;51.178;3.878;2023-06-22T03:29:43;15.90;99.90
23283;DHT22;11810;51.178;3.878;2023-06-22T03:32:10;15.90;99.90
23283;DHT22;11810;51.178;3.878;2023-06-22T03:34:36;15.90;99.90
23283;DHT22;11810;51.178;3.878;2023-06-22T03:37:02;15.90;99.90
23283;DHT22;11810;51.178;3.878;2023-06-22T03:39:28;15.90;99.90
23283;DHT22;11810;51.178;3.878;2023-06-22T03:41:54;15.90;99.90
23283;DHT22;11810;51.178;3.878;2023-06-22T03:44:20;15.90;99.90
23283;DHT22;11810;51.178;3.878;2023-06-22T03:46:46;15.90;99.90
23283;DHT22;11810;51.178;3.878;2023-06-22T03:49:12;16.00;99.90
23283;DHT22;11810;51.178;3.878;2023-06-22T03:51:38;16.00;99.90
23283;DHT22;11810;51.178;3.878;2023-06-22T03:54:04;16.00;99.90
23283;DHT22;11810;51.178;3.878;2023-06-22T03:56:30;16.10;99.90
23283;DHT22;11810;51.178;3.878;2023-06-22T03:58:57;16.10;99.90
23283;DHT22;11810;51.178;3.878;2023-06-22T04:01:23;16.10;99.90
23283;DHT22;11810;51.178;3.878;2023-06-22T04:03:49;16.20;99.90
23283;DHT22;11810;51.178;3.878;2023-06-22T04:06:15;16.40;99.90
23283;DHT22;11810;51.178;3.878;2023-06-22T04:08:41;16.40;99.90
23283;DHT22;11810;51.178;3.878;2023-06-22T04:11:07;16.40;99.90
23283;DHT22;11810;51.178;3.878;2023-06-22T04:13:33;16.50;99.90
23283;DHT22;11810;51.178;3.878;2023-06-22T04:15:59;16.60;99.90
23283;DHT22;11810;51.178;3.878;2023-06-22T04:18:26;16.60;99.90
23283;DHT22;11810;51.178;3.878;2023-06-22T04:20:52;16.60;99.90
23283;DHT22;11810;51.178;3.878;2023-06-22T04:23:18;16.60;99.90
23283;DHT22;11810;51.178;3.878;2023-06-22T04:25:44;16.70;99.90
23283;DHT22;11810;51.178;3.878;2023-06-22T04:28:10;16.80;99.90
23283;DHT22;11810;51.178;3.878;2023-06-22T04:30:38;16.90;99.90
23283;DHT22;11810;51.178;3.878;2023-06-22T04:33:16;16.90;99.90
23283;DHT22;11810;51.178;3.878;2023-06-22T04:35:45;17.10;99.90
23283;DHT22;11810;51.178;3.878;2023-06-22T04:38:12;17.00;99.90
23283;DHT22;11810;51.178;3.878;2023-06-22T04:40:41;17.00;99.90
23283;DHT22;11810;51.178;3.878;2023-06-22T04:43:07;17.10;99.90
23283;DHT22;11810;51.178;3.878;2023-06-22T04:45:35;17.30;99.90
23283;DHT22;11810;51.178;3.878;2023-06-22T04:48:04;17.40;99.90
23283;DHT22;11810;51.178;3.878;2023-06-22T04:50:30;17.50;99.90
23283;DHT22;11810;51.178;3.878;2023-06-22T04:52:56;17.60;99.90
23283;DHT22;11810;51.178;3.878;2023-06-22T04:55:23;17.60;99.90
23283;DHT22;11810;51.178;3.878;2023-06-22T04:57:51;17.80;99.90
23283;DHT22;11810;51.178;3.878;2023-06-22T05:00:20;18.00;99.90
23283;DHT22;11810;51.178;3.878;2023-06-22T05:02:48;18.30;99.90
23283;DHT22;11810;51.178;3.878;2023-06-22T05:05:15;18.50;99.90
23283;DHT22;11810;51.178;3.878;2023-06-22T05:07:49;18.70;99.90
23283;DHT22;11810;51.178;3.878;2023-06-22T05:10:19;19.00;99.90
23283;DHT22;11810;51.178;3.878;2023-06-22T05:12:46;19.30;99.90
23283;DHT22;11810;51.178;3.878;2023-06-22T05:15:12;19.50;99.90
23283;DHT22;11810;51.178;3.878;2023-06-22T05:17:38;19.60;99.90
23283;DHT22;11810;51.178;3.878;2023-06-22T05:20:11;19.70;99.90
23283;DHT22;11810;51.178;3.878;2023-06-22T05:22:38;19.90;99.90
23283;DHT22;11810;51.178;3.878;2023-06-22T05:25:09;20.20;99.90
23283;DHT22;11810;51.178;3.878;2023-06-22T05:27:36;20.40;99.90
23283;DHT22;11810;51.178;3.878;2023-06-22T05:30:06;20.70;99.90
23283;DHT22;11810;51.178;3.878;2023-06-22T05:32:32;21.10;99.90
23283;DHT22;11810;51.178;3.878;2023-06-22T05:34:59;21.10;99.90
23283;DHT22;11810;51.178;3.878;2023-06-22T05:37:25;21.30;99.90
23283;DHT22;11810;51.178;3.878;2023-06-22T05:39:51;21.60;99.90
23283;DHT22;11810;51.178;3.878;2023-06-22T05:42:18;21.80;99.90
23283;DHT22;11810;51.178;3.878;2023-06-22T05:44:44;21.90;99.90
23283;DHT22;11810;51.178;3.878;2023-06-22T05:47:10;22.20;99.90
23283;DHT22;11810;51.178;3.878;2023-06-22T05:49:35;22.30;99.90
23283;DHT22;11810;51.178;3.878;2023-06-22T05:52:01;22.40;99.90
23283;DHT22;11810;51.178;3.878;2023-06-22T05:54:28;22.30;99.90
23283;DHT22;11810;51.178;3.878;2023-06-22T05:56:54;22.40;99.90
23283;DHT22;11810;51.178;3.878;2023-06-22T05:59:20;22.30;99.90
23283;DHT22;11810;51.178;3.878;2023-06-22T06:01:46;22.20;99.90
23283;DHT22;11810;51.178;3.878;2023-06-22T06:04:19;22.10;99.90
23283;DHT22;11810;51.178;3.878;2023-06-22T06:06:45;22.00;99.90
23283;DHT22;11810;51.178;3.878;2023-06-22T06:09:13;22.00;99.90
23283;DHT22;11810;51.178;3.878;2023-06-22T06:11:39;21.90;99.90
23283;DHT22;11810;51.178;3.878;2023-06-22T06:14:05;22.00;99.90
23283;DHT22;11810;51.178;3.878;2023-06-22T06:16:32;22.20;99.90
23283;DHT22;11810;51.178;3.878;2023-06-22T06:18:58;22.10;99.90
23283;DHT22;11810;51.178;3.878;2023-06-22T06:21:24;22.20;99.90
23283;DHT22;11810;51.178;3.878;2023-06-22T06:23:50;22.30;99.90
23283;DHT22;11810;51.178;3.878;2023-06-22T06:26:16;22.50;99.90
23283;DHT22;11810;51.178;3.878;2023-06-22T06:28:43;22.60;99.90
23283;DHT22;11810;51.178;3.878;2023-06-22T06:31:09;22.50;99.90
23283;DHT22;11810;51.178;3.878;2023-06-22T06:33:36;22.60;99.90
23283;DHT22;11810;51.178;3.878;2023-06-22T06:36:02;22.80;99.90
23283;DHT22;11810;51.178;3.878;2023-06-22T06:38:30;23.10;99.90
23283;DHT22;11810;51.178;3.878;2023-06-22T06:40:57;23.50;99.90
23283;DHT22;11810;51.178;3.878;2023-06-22T06:43:23;23.40;99.90
23283;DHT22;11810;51.178;3.878;2023-06-22T06:45:50;23.60;99.90
23283;DHT22;11810;51.178;3.878;2023-06-22T06:48:16;23.30;99.90
23283;DHT22;11810;51.178;3.878;2023-06-22T06:50:43;23.50;99.90
23283;DHT22;11810;51.178;3.878;2023-06-22T06:53:10;23.60;99.90
23283;DHT22;11810;51.178;3.878;2023-06-22T06:55:36;23.40;99.90
23283;DHT22;11810;51.178;3.878;2023-06-22T06:58:02;23.50;99.90
23283;DHT22;11810;51.178;3.878;2023-06-22T07:00:33;23.50;99.90
23283;DHT22;11810;51.178;3.878;2023-06-22T07:02:59;23.70;99.90
23283;DHT22;11810;51.178;3.878;2023-06-22T07:05:25;24.10;99.90
23283;DHT22;11810;51.178;3.878;2023-06-22T07:07:51;24.00;99.90
23283;DHT22;11810;51.178;3.878;2023-06-22T07:10:17;24.00;99.90
23283;DHT22;11810;51.178;3.878;2023-06-22T07:12:43;23.80;99.90
23283;DHT22;11810;51.178;3.878;2023-06-22T07:15:09;23.80;99.90
23283;DHT22;11810;51.178;3.878;2023-06-22T07:17:36;23.80;99.90
23283;DHT22;11810;51.178;3.878;2023-06-22T07:20:03;23.80;99.90
23283;DHT22;11810;51.178;3.878;2023-06-22T07:22:36;23.70;99.90
23283;DHT22;11810;51.178;3.878;2023-06-22T07:25:02;23.70;99.90
23283;DHT22;11810;51.178;3.878;2023-06-22T07:28:01;24.00;99.90
23283;DHT22;11810;51.178;3.878;2023-06-22T07:30:29;24.10;99.90
23283;DHT22;11810;51.178;3.878;2023-06-22T07:32:56;24.20;99.90
23283;DHT22;11810;51.178;3.878;2023-06-22T07:35:22;24.40;99.90
23283;DHT22;11810;51.178;3.878;2023-06-22T07:37:48;24.20;99.90
23283;DHT22;11810;51.178;3.878;2023-06-22T07:40:14;24.00;99.90
23283;DHT22;11810;51.178;3.878;2023-06-22T07:42:40;24.20;99.90
23283;DHT22;11810;51.178;3.878;2023-06-22T07:45:06;24.30;99.90
23283;DHT22;11810;51.178;3.878;2023-06-22T07:47:34;24.30;99.90
23283;DHT22;11810;51.178;3.878;2023-06-22T07:50:01;24.20;99.90
23283;DHT22;11810;51.178;3.878;2023-06-22T07:52:28;24.40;99.90
23283;DHT22;11810;51.178;3.878;2023-06-22T07:54:54;24.50;99.90
23283;DHT22;11810;51.178;3.878;2023-06-22T07:57:20;24.30;99.90
23283;DHT22;11810;51.178;3.878;2023-06-22T07:59:47;24.10;99.90
23283;DHT22;11810;51.178;3.878;2023-06-22T08:02:13;24.20;99.90
23283;DHT22;11810;51.178;3.878;2023-06-22T08:04:39;24.10;99.90
23283;DHT22;11810;51.178;3.878;2023-06-22T08:07:06;24.30;99.90
23283;DHT22;11810;51.178;3.878;2023-06-22T08:09:32;24.00;99.90
23283;DHT22;11810;51.178;3.878;2023-06-22T08:11:59;23.80;99.90
23283;DHT22;11810;51.178;3.878;2023-06-22T08:14:29;23.80;99.90
23283;DHT22;11810;51.178;3.878;2023-06-22T08:16:55;23.90;99.90
23283;DHT22;11810;51.178;3.878;2023-06-22T08:19:21;23.90;99.90
23283;DHT22;11810;51.178;3.878;2023-06-22T08:21:47;23.90;99.90
23283;DHT22;11810;51.178;3.878;2023-06-22T08:24:13;24.00;99.90
23283;DHT22;11810;51.178;3.878;2023-06-22T08:26:39;23.80;99.90
23283;DHT22;11810;51.178;3.878;2023-06-22T08:29:05;23.90;99.90
23283;DHT22;11810;51.178;3.878;2023-06-22T08:31:31;23.80;99.90
23283;DHT22;11810;51.178;3.878;2023-06-22T08:33:59;23.80;99.90
23283;DHT22;11810;51.178;3.878;2023-06-22T08:36:25;23.80;99.90
23283;DHT22;11810;51.178;3.878;2023-06-22T08:38:51;23.90;99.90
23283;DHT22;11810;51.178;3.878;2023-06-22T08:41:18;24.00;99.90
23283;DHT22;11810;51.178;3.878;2023-06-22T08:43:44;24.00;99.90
23283;DHT22;11810;51.178;3.878;2023-06-22T08:46:11;23.90;99.90
23283;DHT22;11810;51.178;3.878;2023-06-22T08:48:37;24.20;99.90
23283;DHT22;11810;51.178;3.878;2023-06-22T08:51:04;24.20;99.90
23283;DHT22;11810;51.178;3.878;2023-06-22T08:53:30;24.20;99.90
23283;DHT22;11810;51.178;3.878;2023-06-22T08:55:56;24.00;99.90
23283;DHT22;11810;51.178;3.878;2023-06-22T08:58:22;24.00;99.90
23283;DHT22;11810;51.178;3.878;2023-06-22T09:00:49;23.90;99.90
23283;DHT22;11810;51.178;3.878;2023-06-22T09:03:17;23.70;99.90
23283;DHT22;11810;51.178;3.878;2023-06-22T09:05:43;23.90;99.90
23283;DHT22;11810;51.178;3.878;2023-06-22T09:08:09;24.00;99.90
23283;DHT22;11810;51.178;3.878;2023-06-22T09:10:35;24.10;99.90
23283;DHT22;11810;51.178;3.878;2023-06-22T09:13:00;24.10;99.90
23283;DHT22;11810;51.178;3.878;2023-06-22T09:15:26;23.90;99.90
23283;DHT22;11810;51.178;3.878;2023-06-22T09:17:52;23.90;99.90
23283;DHT22;11810;51.178;3.878;2023-06-22T09:20:20;24.00;99.90
23283;DHT22;11810;51.178;3.878;2023-06-22T09:22:46;24.10;99.90
23283;DHT22;11810;51.178;3.878;2023-06-22T09:25:12;24.10;99.90
23283;DHT22;11810;51.178;3.878;2023-06-22T09:27:38;23.80;99.90
23283;DHT22;11810;51.178;3.878;2023-06-22T09:30:04;23.80;99.90
23283;DHT22;11810;51.178;3.878;2023-06-22T09:32:30;23.70;99.90
23283;DHT22;11810;51.178;3.878;2023-06-22T09:34:56;23.80;99.90
23283;DHT22;11810;51.178;3.878;2023-06-22T09:37:22;23.70;99.90
23283;DHT22;11810;51.178;3.878;2023-06-22T09:39:48;23.80;99.90
23283;DHT22;11810;51.178;3.878;2023-06-22T09:42:14;23.60;99.90
23283;DHT22;11810;51.178;3.878;2023-06-22T09:44:40;23.70;99.90
23283;DHT22;11810;51.178;3.878;2023-06-22T09:47:06;23.70;99.90
23283;DHT22;11810;51.178;3.878;2023-06-22T09:49:32;23.70;99.90
23283;DHT22;11810;51.178;3.878;2023-06-22T09:51:58;23.40;99.90
23283;DHT22;11810;51.178;3.878;2023-06-22T09:54:25;23.60;99.90
23283;DHT22;11810;51.178;3.878;2023-06-22T09:56:51;23.50;99.90
23283;DHT22;11810;51.178;3.878;2023-06-22T09:59:17;23.40;99.90
23283;DHT22;11810;51.178;3.878;2023-06-22T10:01:43;23.50;99.90
23283;DHT22;11810;51.178;3.878;2023-06-22T10:04:09;23.50;99.90
23283;DHT22;11810;51.178;3.878;2023-06-22T10:06:35;23.50;99.90
23283;DHT22;11810;51.178;3.878;2023-06-22T10:09:01;23.50;99.90
23283;DHT22;11810;51.178;3.878;2023-06-22T10:11:26;23.40;99.90
23283;DHT22;11810;51.178;3.878;2023-06-22T10:13:55;23.30;99.90
23283;DHT22;11810;51.178;3.878;2023-06-22T10:16:29;23.10;99.90
23283;DHT22;11810;51.178;3.878;2023-06-22T10:18:55;22.80;99.90
23283;DHT22;11810;51.178;3.878;2023-06-22T10:21:21;22.70;99.90
23283;DHT22;11810;51.178;3.878;2023-06-22T10:23:47;22.50;99.90
23283;DHT22;11810;51.178;3.878;2023-06-22T10:26:13;22.30;99.90
23283;DHT22;11810;51.178;3.878;2023-06-22T10:28:39;22.20;99.90
23283;DHT22;11810;51.178;3.878;2023-06-22T10:31:05;22.20;99.90
23283;DHT22;11810;51.178;3.878;2023-06-22T10:33:31;22.20;99.90
23283;DHT22;11810;51.178;3.878;2023-06-22T10:35:56;22.10;99.90
23283;DHT22;11810;51.178;3.878;2023-06-22T10:38:22;22.10;99.90
23283;DHT22;11810;51.178;3.878;2023-06-22T10:40:48;22.10;99.90
23283;DHT22;11810;51.178;3.878;2023-06-22T10:43:14;22.10;99.90
23283;DHT22;11810;51.178;3.878;2023-06-22T10:45:40;22.00;99.90
23283;DHT22;11810;51.178;3.878;2023-06-22T10:48:06;21.80;99.90
23283;DHT22;11810;51.178;3.878;2023-06-22T10:50:32;21.90;99.90
23283;DHT22;11810;51.178;3.878;2023-06-22T10:52:58;21.80;99.90
23283;DHT22;11810;51.178;3.878;2023-06-22T10:55:24;21.90;99.90
23283;DHT22;11810;51.178;3.878;2023-06-22T10:57:50;21.80;99.90
23283;DHT22;11810;51.178;3.878;2023-06-22T11:00:16;21.70;99.90
23283;DHT22;11810;51.178;3.878;2023-06-22T11:02:42;21.70;99.90
23283;DHT22;11810;51.178;3.878;2023-06-22T11:05:08;21.70;99.90
23283;DHT22;11810;51.178;3.878;2023-06-22T11:07:34;21.60;99.90
23283;DHT22;11810;51.178;3.878;2023-06-22T11:10:00;21.80;99.90
23283;DHT22;11810;51.178;3.878;2023-06-22T11:12:26;21.70;99.90
23283;DHT22;11810;51.178;3.878;2023-06-22T11:14:52;21.70;99.90
23283;DHT22;11810;51.178;3.878;2023-06-22T11:17:18;21.70;99.90
23283;DHT22;11810;51.178;3.878;2023-06-22T11:19:45;21.90;99.90
23283;DHT22;11810;51.178;3.878;2023-06-22T11:22:11;21.80;99.90
23283;DHT22;11810;51.178;3.878;2023-06-22T11:24:36;21.80;99.90
23283;DHT22;11810;51.178;3.878;2023-06-22T11:27:02;21.60;99.90
23283;DHT22;11810;51.178;3.878;2023-06-22T11:29:28;21.60;99.90
23283;DHT22;11810;51.178;3.878;2023-06-22T11:31:54;21.70;99.90
23283;DHT22;11810;51.178;3.878;2023-06-22T11:34:20;21.60;99.90
23283;DHT22;11810;51.178;3.878;2023-06-22T11:36:46;21.70;99.90
23283;DHT22;11810;51.178;3.878;2023-06-22T11:39:14;21.70;99.90
23283;DHT22;11810;51.178;3.878;2023-06-22T11:41:41;21.70;99.90
23283;DHT22;11810;51.178;3.878;2023-06-22T11:44:07;21.80;99.90
23283;DHT22;11810;51.178;3.878;2023-06-22T11:46:33;21.70;99.90
23283;DHT22;11810;51.178;3.878;2023-06-22T11:49:01;21.70;99.90
23283;DHT22;11810;51.178;3.878;2023-06-22T11:51:27;21.60;99.90
23283;DHT22;11810;51.178;3.878;2023-06-22T11:53:54;21.60;99.90
23283;DHT22;11810;51.178;3.878;2023-06-22T11:56:19;21.60;99.90
23283;DHT22;11810;51.178;3.878;2023-06-22T11:58:45;21.30;99.90
23283;DHT22;11810;51.178;3.878;2023-06-22T12:01:11;21.20;99.90
23283;DHT22;11810;51.178;3.878;2023-06-22T12:03:40;21.20;99.90
23283;DHT22;11810;51.178;3.878;2023-06-22T12:06:06;21.10;99.90
23283;DHT22;11810;51.178;3.878;2023-06-22T12:08:32;20.90;99.90
23283;DHT22;11810;51.178;3.878;2023-06-22T12:10:58;21.00;99.90
23283;DHT22;11810;51.178;3.878;2023-06-22T12:13:24;21.10;99.90
23283;DHT22;11810;51.178;3.878;2023-06-22T12:15:50;21.10;99.90
23283;DHT22;11810;51.178;3.878;2023-06-22T12:18:18;21.10;99.90
23283;DHT22;11810;51.178;3.878;2023-06-22T12:20:46;21.20;99.90
23283;DHT22;11810;51.178;3.878;2023-06-22T12:23:12;21.00;99.90
23283;DHT22;11810;51.178;3.878;2023-06-22T12:25:39;21.20;99.90
23283;DHT22;11810;51.178;3.878;2023-06-22T12:28:05;21.30;99.90
23283;DHT22;11810;51.178;3.878;2023-06-22T12:30:32;21.30;99.90
23283;DHT22;11810;51.178;3.878;2023-06-22T12:32:58;21.30;99.90
23283;DHT22;11810;51.178;3.878;2023-06-22T12:35:24;21.20;99.90
23283;DHT22;11810;51.178;3.878;2023-06-22T12:37:50;21.30;99.90
23283;DHT22;11810;51.178;3.878;2023-06-22T12:40:16;21.30;99.90
23283;DHT22;11810;51.178;3.878;2023-06-22T12:42:44;21.40;99.90
23283;DHT22;11810;51.178;3.878;2023-06-22T12:45:10;21.40;99.90
23283;DHT22;11810;51.178;3.878;2023-06-22T12:47:36;21.20;99.90
23283;DHT22;11810;51.178;3.878;2023-06-22T12:50:02;21.10;99.90
23283;DHT22;11810;51.178;3.878;2023-06-22T12:52:30;21.00;99.90
23283;DHT22;11810;51.178;3.878;2023-06-22T12:54:58;21.10;99.90
23283;DHT22;11810;51.178;3.878;2023-06-22T12:57:24;21.10;99.90
23283;DHT22;11810;51.178;3.878;2023-06-22T12:59:51;21.30;99.90
23283;DHT22;11810;51.178;3.878;2023-06-22T13:02:17;21.60;99.90
23283;DHT22;11810;51.178;3.878;2023-06-22T13:04:42;21.70;99.90
23283;DHT22;11810;51.178;3.878;2023-06-22T13:07:09;21.90;99.90
23283;DHT22;11810;51.178;3.878;2023-06-22T13:09:36;22.00;99.90
23283;DHT22;11810;51.178;3.878;2023-06-22T13:12:02;21.90;99.90
23283;DHT22;11810;51.178;3.878;2023-06-22T13:14:28;21.80;99.90
23283;DHT22;11810;51.178;3.878;2023-06-22T13:16:54;21.80;99.90
23283;DHT22;11810;51.178;3.878;2023-06-22T13:19:20;21.60;99.90
23283;DHT22;11810;51.178;3.878;2023-06-22T13:21:46;21.60;99.90
23283;DHT22;11810;51.178;3.878;2023-06-22T13:24:12;21.70;99.90
23283;DHT22;11810;51.178;3.878;2023-06-22T13:26:38;21.80;99.90
23283;DHT22;11810;51.178;3.878;2023-06-22T13:29:04;21.70;99.90
23283;DHT22;11810;51.178;3.878;2023-06-22T13:31:30;21.60;99.90
23283;DHT22;11810;51.178;3.878;2023-06-22T13:33:56;21.70;99.90
23283;DHT22;11810;51.178;3.878;2023-06-22T13:36:22;21.60;99.90
23283;DHT22;11810;51.178;3.878;2023-06-22T13:38:49;21.60;99.90
23283;DHT22;11810;51.178;3.878;2023-06-22T13:41:15;21.50;99.90
23283;DHT22;11810;51.178;3.878;2023-06-22T13:43:40;21.40;99.90
23283;DHT22;11810;51.178;3.878;2023-06-22T13:46:06;21.40;99.90
23283;DHT22;11810;51.178;3.878;2023-06-22T13:48:32;21.30;99.90
23283;DHT22;11810;51.178;3.878;2023-06-22T13:50:58;21.40;99.90
23283;DHT22;11810;51.178;3.878;2023-06-22T13:53:25;21.50;99.90
23283;DHT22;11810;51.178;3.878;2023-06-22T13:55:52;21.40;99.90
23283;DHT22;11810;51.178;3.878;2023-06-22T13:58:17;21.30;99.90
23283;DHT22;11810;51.178;3.878;2023-06-22T14:00:45;21.50;99.90
23283;DHT22;11810;51.178;3.878;2023-06-22T14:03:11;21.60;99.90
23283;DHT22;11810;51.178;3.878;2023-06-22T14:05:37;21.50;99.90
23283;DHT22;11810;51.178;3.878;2023-06-22T14:08:03;21.60;99.90
23283;DHT22;11810;51.178;3.878;2023-06-22T14:10:29;21.50;99.90
23283;DHT22;11810;51.178;3.878;2023-06-22T14:12:55;21.60;99.90
23283;DHT22;11810;51.178;3.878;2023-06-22T14:15:21;21.60;99.90
23283;DHT22;11810;51.178;3.878;2023-06-22T14:17:47;21.70;99.90
23283;DHT22;11810;51.178;3.878;2023-06-22T14:20:13;21.90;99.90
23283;DHT22;11810;51.178;3.878;2023-06-22T14:22:39;22.00;99.90
23283;DHT22;11810;51.178;3.878;2023-06-22T14:25:06;21.90;99.90
23283;DHT22;11810;51.178;3.878;2023-06-22T14:27:32;21.80;99.90
23283;DHT22;11810;51.178;3.878;2023-06-22T14:29:58;21.80;99.90
23283;DHT22;11810;51.178;3.878;2023-06-22T14:32:24;22.10;99.90
23283;DHT22;11810;51.178;3.878;2023-06-22T14:34:50;22.40;99.90
23283;DHT22;11810;51.178;3.878;2023-06-22T14:37:16;22.70;99.90
23283;DHT22;11810;51.178;3.878;2023-06-22T14:39:42;22.80;99.90
23283;DHT22;11810;51.178;3.878;2023-06-22T14:42:09;22.70;99.90
23283;DHT22;11810;51.178;3.878;2023-06-22T14:44:34;22.70;99.90
23283;DHT22;11810;51.178;3.878;2023-06-22T14:47:00;22.70;99.90
23283;DHT22;11810;51.178;3.878;2023-06-22T14:49:27;22.80;99.90
23283;DHT22;11810;51.178;3.878;2023-06-22T14:51:52;23.00;99.90
23283;DHT22;11810;51.178;3.878;2023-06-22T14:54:18;23.00;99.90
23283;DHT22;11810;51.178;3.878;2023-06-22T14:56:44;23.20;99.90
23283;DHT22;11810;51.178;3.878;2023-06-22T14:59:10;23.30;99.90
23283;DHT22;11810;51.178;3.878;2023-06-22T15:01:36;23.70;99.90
23283;DHT22;11810;51.178;3.878;2023-06-22T15:04:02;23.80;99.90
23283;DHT22;11810;51.178;3.878;2023-06-22T15:06:28;24.00;99.90
23283;DHT22;11810;51.178;3.878;2023-06-22T15:08:54;24.10;99.90
23283;DHT22;11810;51.178;3.878;2023-06-22T15:11:20;23.90;99.90
23283;DHT22;11810;51.178;3.878;2023-06-22T15:13:46;24.00;99.90
23283;DHT22;11810;51.178;3.878;2023-06-22T15:16:12;24.10;99.90
23283;DHT22;11810;51.178;3.878;2023-06-22T15:18:38;24.10;99.90
23283;DHT22;11810;51.178;3.878;2023-06-22T15:21:06;23.90;99.90
23283;DHT22;11810;51.178;3.878;2023-06-22T15:23:32;23.70;99.90
23283;DHT22;11810;51.178;3.878;2023-06-22T15:26:01;23.70;99.90
23283;DHT22;11810;51.178;3.878;2023-06-22T15:28:28;23.50;99.90
23283;DHT22;11810;51.178;3.878;2023-06-22T15:30:54;23.30;99.90
23283;DHT22;11810;51.178;3.878;2023-06-22T15:33:21;23.30;99.90
23283;DHT22;11810;51.178;3.878;2023-06-22T15:35:47;23.30;99.90
23283;DHT22;11810;51.178;3.878;2023-06-22T15:38:13;23.20;99.90